Time;durP1;ratioP1;P1;durP2;ratioP2;P2;SDS_P1;SDS_P2;PMS_P1;PMS_P2;Temp;Humidity;BMP_temperature;BMP_pressure;BME280_temperature;BME280_humidity;BME280_pressure;Samples;Min_cycle;Max_cycle;Signal;HPM_P1;HPM_P2
2022/12/19 00:00:20;;;;;;;50.67;36.58;;;0.80;99.90;;;;;;5035221;28;20053;-68
2022/12/19 00:02:45;;;;;;;66.28;37.10;;;0.80;99.90;;;;;;5035225;28;20045;-68
2022/12/19 00:05:12;;;;;;;51.38;36.28;;;0.80;99.90;;;;;;5017963;28;20049;-68
2022/12/19 00:07:38;;;;;;;51.13;37.83;;;0.80;99.90;;;;;;5035691;28;20042;-69
2022/12/19 00:10:04;;;;;;;49.67;36.10;;;0.80;99.90;;;;;;5035244;28;20366;-69
2022/12/19 00:12:33;;;;;;;49.05;35.75;;;0.80;99.90;;;;;;5035342;28;20037;-69
2022/12/19 00:14:58;;;;;;;51.60;36.67;;;0.80;99.90;;;;;;5035387;28;20128;-69
2022/12/19 00:17:24;;;;;;;46.40;34.67;;;0.80;99.90;;;;;;5034749;28;20127;-70
2022/12/19 00:19:50;;;;;;;48.88;36.83;;;0.90;99.90;;;;;;5035369;28;20050;-69
2022/12/19 00:22:18;;;;;;;50.13;37.05;;;0.80;99.90;;;;;;5035151;28;20052;-70
2022/12/19 00:24:44;;;;;;;47.63;36.03;;;0.90;99.90;;;;;;5035064;28;20050;-69
2022/12/19 00:27:10;;;;;;;49.30;35.70;;;0.90;99.90;;;;;;5035718;28;20049;-69
2022/12/19 00:29:35;;;;;;;48.33;35.55;;;0.90;99.90;;;;;;5034925;28;20084;-69
2022/12/19 00:32:01;;;;;;;50.08;36.20;;;1.00;99.90;;;;;;5034815;28;20061;-69
2022/12/19 00:34:26;;;;;;;50.88;36.63;;;1.00;99.90;;;;;;5017258;28;20057;-70
2022/12/19 00:36:52;;;;;;;51.55;35.30;;;1.20;99.90;;;;;;5035201;28;20049;-69
2022/12/19 00:39:17;;;;;;;46.63;34.50;;;1.00;99.90;;;;;;5034840;28;20038;-69
2022/12/19 00:41:43;;;;;;;47.17;35.08;;;1.00;99.90;;;;;;5036493;28;20037;-69
2022/12/19 00:44:14;;;;;;;49.83;35.65;;;1.00;99.90;;;;;;5038733;28;20045;-69
2022/12/19 00:46:40;;;;;;;54.60;37.40;;;1.00;99.90;;;;;;5039031;28;20085;-70
2022/12/19 00:49:06;;;;;;;47.50;35.28;;;1.00;99.90;;;;;;5021526;28;20038;-69
2022/12/19 00:51:34;;;;;;;47.30;34.42;;;1.10;99.90;;;;;;5021562;28;20068;-70
2022/12/19 00:54:01;;;;;;;52.28;36.85;;;1.10;99.90;;;;;;5038938;28;20037;-70
2022/12/19 00:56:31;;;;;;;47.53;34.58;;;1.10;99.90;;;;;;5038815;28;20045;-70
2022/12/19 00:58:57;;;;;;;49.28;35.80;;;1.10;99.90;;;;;;5021265;28;20058;-69
2022/12/19 01:01:29;;;;;;;48.10;35.13;;;1.10;99.90;;;;;;5038811;28;20052;-70
2022/12/19 01:03:57;;;;;;;49.17;34.55;;;1.10;99.90;;;;;;5020977;28;20107;-69
2022/12/19 01:06:23;;;;;;;47.05;34.83;;;1.20;99.90;;;;;;5038629;28;20046;-69
2022/12/19 01:08:49;;;;;;;50.22;34.92;;;1.20;99.90;;;;;;5038602;28;20048;-69
2022/12/19 01:11:14;;;;;;;48.92;35.95;;;1.20;99.90;;;;;;5021364;28;20045;-70
2022/12/19 01:13:40;;;;;;;52.85;37.45;;;1.20;99.90;;;;;;5038111;28;20462;-69
2022/12/19 01:16:09;;;;;;;49.90;36.15;;;1.10;99.90;;;;;;5038127;28;20041;-69
2022/12/19 01:18:35;;;;;;;48.38;36.10;;;1.40;99.90;;;;;;5038034;28;20049;-70
2022/12/19 01:21:02;;;;;;;57.13;39.00;;;1.40;99.90;;;;;;5038307;28;20103;-70
2022/12/19 01:23:28;;;;;;;49.70;35.75;;;1.20;99.90;;;;;;5020992;28;20053;-70
2022/12/19 01:25:55;;;;;;;55.80;37.75;;;1.20;99.90;;;;;;5038547;28;20053;-69
2022/12/19 01:28:21;;;;;;;51.53;37.45;;;1.30;99.90;;;;;;5038080;28;20041;-70
2022/12/19 01:30:47;;;;;;;50.45;37.05;;;1.30;99.90;;;;;;5037934;28;20037;-69
2022/12/19 01:33:14;;;;;;;53.53;37.30;;;1.30;99.90;;;;;;5037919;28;20056;-70
2022/12/19 01:35:41;;;;;;;55.42;38.20;;;1.30;99.90;;;;;;5020644;28;20445;-69
2022/12/19 01:38:10;;;;;;;53.97;38.20;;;1.30;99.90;;;;;;5038166;28;20106;-69
2022/12/19 01:40:36;;;;;;;53.53;37.05;;;1.30;99.90;;;;;;5037471;28;20468;-70
2022/12/19 01:43:02;;;;;;;54.42;39.25;;;1.30;99.90;;;;;;5038184;28;20049;-71
2022/12/19 01:45:32;;;;;;;51.00;36.58;;;1.30;99.90;;;;;;5037813;28;20049;-69
2022/12/19 01:48:17;;;;;;;51.78;36.80;;;1.30;99.90;;;;;;5037881;28;20092;-70
2022/12/19 01:50:55;;;;;;;54.35;37.28;;;1.30;99.90;;;;;;5038073;28;20060;-69
2022/12/19 01:53:24;;;;;;;51.72;36.05;;;1.30;99.90;;;;;;5037213;28;20052;-71
2022/12/19 01:55:51;;;;;;;51.85;36.97;;;1.40;99.90;;;;;;5037725;28;20041;-70
2022/12/19 01:58:17;;;;;;;51.20;37.63;;;1.40;99.90;;;;;;5020052;28;20097;-70
2022/12/19 02:00:43;;;;;;;50.70;36.13;;;1.40;99.90;;;;;;5037393;28;20068;-69
2022/12/19 02:03:19;;;;;;;52.00;36.88;;;1.40;99.90;;;;;;5037565;28;20045;-70
2022/12/19 02:05:45;;;;;;;50.72;35.58;;;1.40;99.90;;;;;;5019702;28;20041;-71
2022/12/19 02:08:12;;;;;;;52.50;37.92;;;1.50;99.90;;;;;;5020189;28;20061;-69
2022/12/19 02:10:38;;;;;;;50.67;35.60;;;1.50;99.90;;;;;;5037475;28;20053;-70
2022/12/19 02:13:04;;;;;;;50.72;36.53;;;1.50;99.90;;;;;;5037568;28;20441;-69
2022/12/19 02:15:37;;;;;;;53.00;36.28;;;1.50;99.90;;;;;;5037041;28;20103;-70
2022/12/19 02:18:09;;;;;;;54.28;37.40;;;1.50;99.90;;;;;;5036834;28;20060;-69
2022/12/19 02:21:04;;;;;;;56.38;38.78;;;1.60;99.90;;;;;;5020180;28;20343;-70
2022/12/19 02:23:54;;;;;;;54.92;37.17;;;1.60;99.90;;;;;;5037418;28;20045;-71
2022/12/19 02:26:45;;;;;;;53.30;37.00;;;1.60;99.90;;;;;;5017405;28;20045;-70
2022/12/19 02:29:19;;;;;;;58.03;38.22;;;1.70;99.90;;;;;;5017161;28;20038;-70
2022/12/19 02:32:11;;;;;;;57.40;39.15;;;1.60;99.90;;;;;;5017048;28;20054;-69
2022/12/19 02:34:40;;;;;;;60.70;40.92;;;1.70;99.90;;;;;;5017291;28;20053;-70
2022/12/19 02:37:30;;;;;;;58.88;39.45;;;1.70;99.90;;;;;;5016995;28;20050;-69
2022/12/19 02:40:03;;;;;;;58.80;40.03;;;1.80;99.90;;;;;;5029641;28;20069;-70
2022/12/19 02:42:37;;;;;;;74.75;44.72;;;2.10;99.90;;;;;;5036305;28;20061;-70
2022/12/19 02:45:06;;;;;;;73.78;45.55;;;1.60;99.90;;;;;;5019035;28;20056;-70
2022/12/19 02:47:33;;;;;;;72.18;44.10;;;1.60;99.90;;;;;;5036377;28;20481;-69
2022/12/19 02:49:59;;;;;;;74.38;46.40;;;1.60;99.90;;;;;;5036489;28;20346;-71
2022/12/19 02:52:24;;;;;;;78.93;47.40;;;1.60;99.90;;;;;;5019130;28;20041;-70
2022/12/19 02:54:58;;;;;;;81.55;46.92;;;1.60;99.90;;;;;;5036084;28;20110;-70
2022/12/19 02:57:27;;;;;;;;;;;1.60;99.90;;;;;;5036890;28;20045;-71
2022/12/19 03:00:09;;;;;;;66.60;44.67;;;1.70;99.90;;;;;;5036335;28;20086;-69
2022/12/19 03:03:09;;;;;;;78.80;47.53;;;1.60;99.90;;;;;;5036461;28;20034;-69
2022/12/19 03:05:52;;;;;;;77.45;48.25;;;1.70;99.90;;;;;;5035810;28;20107;-70
2022/12/19 03:08:34;;;;;;;82.95;46.85;;;1.70;99.90;;;;;;5035645;28;20037;-69
2022/12/19 03:11:20;;;;;;;84.97;50.45;;;1.80;99.90;;;;;;5036599;28;20127;-69
2022/12/19 03:13:58;;;;;;;87.10;50.70;;;1.80;99.90;;;;;;5036245;28;20045;-71
2022/12/19 03:16:24;;;;;;;87.20;50.13;;;1.80;99.90;;;;;;5036497;28;20115;-69
2022/12/19 03:18:54;;;;;;;85.07;50.85;;;1.80;99.90;;;;;;5036640;28;20116;-69
2022/12/19 03:21:22;;;;;;;80.80;49.70;;;1.80;99.90;;;;;;5036010;28;20450;-70
2022/12/19 03:23:51;;;;;;;89.47;51.55;;;1.80;99.90;;;;;;5035693;28;20049;-69
2022/12/19 03:26:22;;;;;;;77.88;48.80;;;1.80;99.90;;;;;;5018607;28;20052;-69
2022/12/19 03:29:17;;;;;;;85.95;51.35;;;1.80;99.90;;;;;;5018605;28;20077;-70
2022/12/19 03:31:44;;;;;;;93.45;51.83;;;1.90;99.90;;;;;;5035896;28;20041;-69
2022/12/19 03:34:31;;;;;;;95.35;51.50;;;1.90;99.90;;;;;;5035820;28;20056;-69
2022/12/19 03:37:02;;;;;;;86.88;50.83;;;1.90;99.90;;;;;;5036428;28;20342;-70
2022/12/19 03:39:29;;;;;;;93.13;52.35;;;1.90;99.90;;;;;;5035379;28;20053;-69
2022/12/19 03:44:42;;;;;;;92.30;53.20;;;1.90;99.90;;;;;;5035747;28;20417;-69
2022/12/19 03:47:19;;;;;;;94.50;54.03;;;2.30;99.90;;;;;;5035634;28;20081;-69
2022/12/19 03:49:46;;;;;;;103.32;56.70;;;2.00;99.90;;;;;;5035360;28;20053;-69
2022/12/19 03:52:40;;;;;;;89.90;53.28;;;2.00;99.90;;;;;;5035244;28;20450;-71
2022/12/19 03:55:15;;;;;;;98.32;54.88;;;2.00;99.90;;;;;;5035748;28;20056;-69
2022/12/19 03:57:50;;;;;;;88.32;53.92;;;2.10;99.90;;;;;;5033230;28;20080;-70
2022/12/19 04:00:17;;;;;;;94.60;55.47;;;2.20;99.90;;;;;;5035086;28;20064;-69
2022/12/19 04:02:47;;;;;;;99.90;57.30;;;2.20;99.90;;;;;;5035355;28;20037;-70
2022/12/19 04:05:18;;;;;;;101.97;55.75;;;2.20;99.90;;;;;;5035474;28;20118;-68
2022/12/19 04:07:45;;;;;;;91.22;54.90;;;2.20;99.90;;;;;;5017819;28;20046;-69
2022/12/19 04:10:14;;;;;;;91.68;52.20;;;2.20;99.90;;;;;;5035063;28;20350;-68
2022/12/19 04:12:47;;;;;;;95.70;55.13;;;2.20;99.90;;;;;;5034986;28;20055;-69
2022/12/19 04:15:14;;;;;;;97.53;55.20;;;2.30;99.90;;;;;;5035043;28;20103;-68
2022/12/19 04:17:49;;;;;;;110.53;59.47;;;2.20;99.90;;;;;;5035221;28;20099;-68
2022/12/19 04:20:18;;;;;;;97.88;56.70;;;2.30;99.90;;;;;;5035210;28;20060;-69
2022/12/19 04:22:53;;;;;;;97.45;55.22;;;2.60;99.90;;;;;;5017272;28;20064;-69
2022/12/19 04:25:24;;;;;;;102.50;57.65;;;2.40;99.90;;;;;;5034734;28;20041;-69
2022/12/19 04:27:58;;;;;;;101.60;57.15;;;2.30;99.90;;;;;;5018177;28;20057;-69
2022/12/19 04:30:25;;;;;;;97.40;56.45;;;2.40;99.90;;;;;;5035088;28;20041;-68
2022/12/19 04:32:51;;;;;;;103.60;57.25;;;2.40;99.90;;;;;;5035450;28;20052;-69
2022/12/19 04:35:16;;;;;;;101.22;56.63;;;2.40;99.90;;;;;;5035028;28;20054;-69
2022/12/19 04:37:42;;;;;;;100.50;58.25;;;2.50;99.90;;;;;;5017753;28;20033;-68
2022/12/19 04:40:09;;;;;;;102.13;59.33;;;2.50;99.90;;;;;;5017732;28;20107;-69
2022/12/19 04:42:34;;;;;;;97.70;56.75;;;2.50;99.90;;;;;;5018101;28;20331;-67
2022/12/19 04:45:00;;;;;;;105.97;58.88;;;2.60;99.90;;;;;;5035447;28;20045;-68
2022/12/19 04:47:26;;;;;;;107.05;60.15;;;2.60;99.90;;;;;;5035167;28;20461;-68
2022/12/19 04:49:51;;;;;;;110.32;60.92;;;2.70;99.90;;;;;;5035538;28;20358;-69
2022/12/19 04:52:17;;;;;;;94.93;54.92;;;2.60;99.90;;;;;;5034397;28;20430;-67
2022/12/19 04:54:43;;;;;;;103.75;59.35;;;2.70;99.90;;;;;;5034973;28;20113;-68
2022/12/19 04:57:08;;;;;;;109.78;60.40;;;2.70;99.90;;;;;;5034424;28;20037;-68
2022/12/19 04:59:34;;;;;;;115.28;63.95;;;2.70;99.90;;;;;;5034843;28;20504;-68
2022/12/19 05:01:59;;;;;;;118.45;62.63;;;2.70;99.90;;;;;;5017531;28;20151;-68
2022/12/19 05:04:25;;;;;;;109.78;63.33;;;2.70;99.90;;;;;;5034942;28;20472;-69
2022/12/19 05:06:51;;;;;;;111.53;62.40;;;2.70;99.90;;;;;;5034954;28;20046;-69
2022/12/19 05:09:16;;;;;;;106.00;61.83;;;2.70;99.90;;;;;;5034424;28;20052;-69
2022/12/19 05:11:42;;;;;;;113.07;63.30;;;2.80;99.90;;;;;;5034284;28;20080;-68
2022/12/19 05:14:08;;;;;;;115.20;62.97;;;3.20;99.90;;;;;;5034482;28;20033;-68
2022/12/19 05:16:33;;;;;;;102.70;59.35;;;2.80;99.90;;;;;;5034278;28;20056;-69
2022/12/19 05:19:00;;;;;;;106.20;61.78;;;2.80;99.90;;;;;;5034280;28;20361;-68
2022/12/19 05:21:26;;;;;;;111.88;62.78;;;2.80;99.90;;;;;;5034308;28;20052;-70
2022/12/19 05:23:51;;;;;;;101.13;60.33;;;2.80;99.90;;;;;;5035479;28;20041;-67
2022/12/19 05:26:18;;;;;;;112.15;63.35;;;2.80;99.90;;;;;;5034041;28;20033;-69
2022/12/19 05:28:43;;;;;;;115.55;62.60;;;2.90;99.90;;;;;;5019061;28;20060;-67
2022/12/19 05:31:12;;;;;;;112.40;61.40;;;2.80;99.90;;;;;;5020870;28;20045;-68
2022/12/19 05:33:40;;;;;;;128.93;66.88;;;2.80;99.90;;;;;;5037921;28;20081;-68
2022/12/19 05:36:07;;;;;;;113.25;64.95;;;3.20;99.90;;;;;;5021085;28;20452;-67
2022/12/19 05:38:33;;;;;;;126.85;66.05;;;2.90;99.90;;;;;;5021207;28;20067;-68
2022/12/19 05:40:59;;;;;;;114.10;63.10;;;2.90;99.90;;;;;;5037932;28;20059;-68
2022/12/19 05:43:24;;;;;;;131.23;69.53;;;2.90;99.90;;;;;;5038484;28;20126;-67
2022/12/19 05:45:50;;;;;;;122.93;65.22;;;2.90;99.90;;;;;;5037804;28;20498;-67
2022/12/19 05:48:16;;;;;;;125.03;64.05;;;3.00;99.90;;;;;;5038403;28;20045;-69
2022/12/19 05:50:46;;;;;;;115.90;61.13;;;3.00;99.90;;;;;;5004563;28;20049;-68
2022/12/19 05:53:12;;;;;;;119.35;64.50;;;3.00;99.90;;;;;;5037204;28;20115;-68
2022/12/19 05:55:38;;;;;;;113.88;60.90;;;3.00;99.90;;;;;;5037853;28;20049;-68
2022/12/19 05:58:03;;;;;;;107.43;58.67;;;3.00;99.90;;;;;;5037708;28;20144;-68
2022/12/19 06:00:29;;;;;;;115.68;63.20;;;3.00;99.90;;;;;;5037794;28;20052;-68
2022/12/19 06:02:55;;;;;;;106.93;59.58;;;3.00;99.90;;;;;;5037703;28;20037;-68
2022/12/19 06:05:20;;;;;;;138.02;60.17;;;3.10;99.90;;;;;;5037808;28;20045;-68
2022/12/19 06:07:46;;;;;;;124.00;57.72;;;3.10;99.90;;;;;;5037746;28;20049;-68
2022/12/19 06:10:11;;;;;;;110.50;59.38;;;3.20;99.90;;;;;;5036969;28;20484;-68
2022/12/19 06:12:37;;;;;;;96.15;56.17;;;3.20;99.90;;;;;;5037242;28;20054;-68
2022/12/19 06:15:02;;;;;;;100.38;55.78;;;3.20;99.90;;;;;;5037427;28;20059;-68
2022/12/19 06:17:28;;;;;;;112.65;54.33;;;3.20;99.90;;;;;;5019973;28;20049;-69
2022/12/19 06:19:54;;;;;;;113.35;55.38;;;3.20;99.90;;;;;;5037503;28;20045;-69
2022/12/19 06:22:19;;;;;;;91.70;52.67;;;3.20;99.90;;;;;;5037039;28;20056;-68
2022/12/19 06:24:45;;;;;;;94.32;52.55;;;3.30;99.90;;;;;;5036968;28;20049;-68
2022/12/19 06:27:10;;;;;;;100.13;54.38;;;3.30;99.90;;;;;;5036557;28;20041;-68
2022/12/19 06:29:36;;;;;;;97.72;53.78;;;3.30;99.90;;;;;;5035241;28;20458;-70
2022/12/19 06:32:02;;;;;;;98.72;54.15;;;3.30;99.90;;;;;;5032970;28;20041;-69
2022/12/19 06:34:28;;;;;;;86.47;51.45;;;3.40;99.90;;;;;;5035820;28;20132;-67
2022/12/19 06:36:53;;;;;;;106.10;54.08;;;3.50;99.90;;;;;;5036052;28;20128;-68
2022/12/19 06:39:19;;;;;;;100.63;53.47;;;3.40;99.90;;;;;;5035791;28;20041;-67
2022/12/19 06:44:30;;;;;;;117.93;55.50;;;3.50;99.90;;;;;;5035821;28;20045;-68
2022/12/19 06:46:56;;;;;;;95.65;51.30;;;3.50;99.90;;;;;;5035896;28;20137;-68
2022/12/19 06:49:21;;;;;;;104.78;54.38;;;3.50;99.90;;;;;;5036477;28;20081;-69
2022/12/19 06:51:47;;;;;;;104.47;52.55;;;3.50;99.90;;;;;;5036302;28;20369;-68
2022/12/19 06:54:13;;;;;;;91.82;49.13;;;3.50;99.90;;;;;;5035674;28;20041;-68
2022/12/19 06:56:41;;;;;;;95.15;48.78;;;3.50;99.90;;;;;;5036214;28;20053;-68
2022/12/19 06:59:10;;;;;;;92.53;49.47;;;4.00;99.90;;;;;;5036240;28;20053;-68
2022/12/19 07:01:57;;;;;;;93.78;48.15;;;3.60;99.90;;;;;;5034683;28;20171;-69
2022/12/19 07:04:31;;;;;;;85.82;47.67;;;3.70;99.90;;;;;;5036134;28;20056;-68
2022/12/19 07:06:56;;;;;;;;;;;3.70;99.90;;;;;;5036104;28;20056;-68
2022/12/19 07:09:22;;;;;;;87.35;47.13;;;3.70;99.90;;;;;;5036238;28;19925;-68
2022/12/19 07:11:48;;;;;;;77.60;44.60;;;3.80;99.90;;;;;;5035903;28;20042;-69
2022/12/19 07:14:13;;;;;;;103.00;46.92;;;3.80;99.90;;;;;;5016462;28;20457;-68
2022/12/19 07:16:40;;;;;;;82.22;44.53;;;3.80;99.90;;;;;;5036021;28;20449;-70
2022/12/19 07:19:06;;;;;;;87.07;46.30;;;3.90;99.90;;;;;;5035543;28;20484;-68
2022/12/19 07:21:32;;;;;;;90.68;45.42;;;3.90;99.90;;;;;;5035688;28;20049;-68
2022/12/19 07:23:58;;;;;;;83.10;44.95;;;3.90;99.90;;;;;;5035420;28;20040;-69
2022/12/19 07:26:24;;;;;;;88.90;45.78;;;3.90;99.90;;;;;;5033339;28;20128;-69
2022/12/19 07:28:50;;;;;;;67.65;40.80;;;4.00;99.90;;;;;;5035133;28;20179;-69
2022/12/19 07:31:15;;;;;;;82.18;43.75;;;4.00;99.90;;;;;;5034651;28;20046;-68
2022/12/19 07:33:41;;;;;;;75.60;41.42;;;4.00;99.90;;;;;;5035699;28;20051;-69
2022/12/19 07:36:07;;;;;;;76.95;42.20;;;4.00;99.90;;;;;;5035304;28;20458;-69
2022/12/19 07:38:35;;;;;;;80.45;41.65;;;4.20;99.90;;;;;;5035594;28;20057;-69
2022/12/19 07:41:01;;;;;;;76.00;40.58;;;4.20;99.90;;;;;;5035758;28;20049;-69
2022/12/19 07:43:26;;;;;;;69.93;39.15;;;4.10;99.90;;;;;;5035346;28;20045;-71
2022/12/19 07:45:55;;;;;;;65.88;38.92;;;4.10;99.90;;;;;;5034807;28;20045;-70
2022/12/19 07:48:22;;;;;;;79.50;39.22;;;4.20;99.90;;;;;;5034724;28;20322;-71
2022/12/19 07:50:48;;;;;;;71.97;39.85;;;4.20;99.90;;;;;;5034497;28;20049;-69
2022/12/19 07:53:16;;;;;;;66.80;38.42;;;4.20;99.90;;;;;;5035396;28;20121;-69
2022/12/19 07:55:42;;;;;;;79.75;39.22;;;4.20;99.90;;;;;;5035175;28;20060;-68
2022/12/19 07:58:13;;;;;;;67.20;37.63;;;4.20;99.90;;;;;;5017128;28;20045;-69
2022/12/19 08:00:39;;;;;;;77.15;40.60;;;4.30;99.90;;;;;;5035161;28;20124;-68
2022/12/19 08:03:04;;;;;;;75.32;36.78;;;4.30;99.90;;;;;;5034868;28;20084;-67
2022/12/19 08:05:30;;;;;;;72.78;39.63;;;4.30;99.90;;;;;;5035145;28;20037;-68
2022/12/19 08:07:55;;;;;;;97.68;41.78;;;4.30;99.90;;;;;;5035091;28;20056;-67
2022/12/19 08:10:22;;;;;;;72.53;38.78;;;4.40;99.90;;;;;;5035364;28;20128;-67
2022/12/19 08:12:48;;;;;;;72.85;42.28;;;4.40;99.90;;;;;;5031262;28;20081;-67
2022/12/19 08:15:13;;;;;;;71.10;46.40;;;4.40;99.90;;;;;;5018705;28;20084;-67
2022/12/19 08:17:39;;;;;;;77.15;50.63;;;4.40;99.90;;;;;;5035025;28;20137;-67
2022/12/19 08:20:06;;;;;;;92.95;51.15;;;4.50;99.90;;;;;;5017199;28;20056;-67
2022/12/19 08:22:32;;;;;;;90.25;50.13;;;4.60;99.90;;;;;;5034803;28;20053;-68
2022/12/19 08:24:58;;;;;;;69.45;40.10;;;4.50;99.90;;;;;;5034775;28;20510;-66
2022/12/19 08:27:24;;;;;;;84.60;45.05;;;4.50;99.90;;;;;;5034232;28;20045;-66
2022/12/19 08:29:50;;;;;;;81.05;44.95;;;4.60;99.90;;;;;;5034608;28;20037;-68
2022/12/19 08:32:15;;;;;;;96.85;56.63;;;4.60;99.90;;;;;;5034775;28;20145;-66
2022/12/19 08:34:41;;;;;;;82.85;50.33;;;4.60;99.90;;;;;;5034839;28;20044;-66
2022/12/19 08:37:08;;;;;;;68.63;39.47;;;4.60;99.90;;;;;;5034713;28;20052;-69
2022/12/19 08:39:33;;;;;;;67.63;42.35;;;4.60;99.90;;;;;;5034842;28;20104;-68
2022/12/19 08:41:59;;;;;;;97.88;58.00;;;4.70;99.90;;;;;;5034798;28;20037;-68
2022/12/19 08:44:25;;;;;;;66.25;40.85;;;4.90;99.90;;;;;;5034213;28;20090;-68
2022/12/19 08:46:51;;;;;;;70.55;46.80;;;4.80;99.90;;;;;;5034450;28;20484;-67
2022/12/19 08:49:18;;;;;;;78.97;42.05;;;4.80;99.90;;;;;;5034558;28;20037;-68
2022/12/19 08:51:44;;;;;;;61.63;38.30;;;4.80;99.90;;;;;;5034566;28;20037;-68
2022/12/19 08:54:11;;;;;;;76.65;46.70;;;4.80;99.90;;;;;;5034314;28;20053;-68
2022/12/19 08:56:37;;;;;;;64.55;41.63;;;4.90;99.90;;;;;;5034008;28;20045;-68
2022/12/19 08:59:03;;;;;;;73.95;52.53;;;4.90;99.90;;;;;;5030252;28;20060;-68
2022/12/19 09:01:28;;;;;;;88.75;55.17;;;4.90;99.90;;;;;;5034323;28;20041;-67
2022/12/19 09:03:58;;;;;;;76.63;50.30;;;5.10;99.90;;;;;;5037317;28;20060;-68
2022/12/19 09:06:24;;;;;;;116.47;45.28;;;5.10;99.90;;;;;;5038207;28;20048;-68
2022/12/19 09:08:50;;;;;;;85.30;63.03;;;5.10;99.90;;;;;;5037986;28;20056;-67
2022/12/19 09:11:18;;;;;;;68.60;46.72;;;5.10;99.90;;;;;;5037949;28;20084;-69
2022/12/19 09:13:45;;;;;;;61.75;43.50;;;5.20;99.90;;;;;;5037586;28;20501;-68
2022/12/19 09:16:13;;;;;;;63.20;42.45;;;5.20;99.90;;;;;;5038229;28;20428;-66
2022/12/19 09:18:39;;;;;;;69.53;44.38;;;5.20;99.90;;;;;;5038065;28;20106;-67
2022/12/19 09:21:05;;;;;;;79.55;51.33;;;5.20;99.90;;;;;;5037840;28;20051;-67
2022/12/19 09:23:31;;;;;;;82.72;53.80;;;5.30;99.90;;;;;;5038063;28;20045;-67
2022/12/19 09:26:03;;;;;;;68.40;49.83;;;5.30;99.90;;;;;;5038075;28;20080;-67
2022/12/19 09:28:29;;;;;;;78.88;44.70;;;5.60;99.90;;;;;;5037711;28;20052;-67
2022/12/19 09:31:00;;;;;;;62.58;41.90;;;5.30;99.90;;;;;;5037946;28;20056;-67
2022/12/19 09:33:26;;;;;;;67.22;44.78;;;5.30;99.90;;;;;;5037269;28;20099;-68
2022/12/19 09:35:54;;;;;;;70.07;50.70;;;5.40;99.90;;;;;;5038044;28;20128;-67
2022/12/19 09:38:20;;;;;;;88.75;62.50;;;5.40;99.90;;;;;;5037710;28;20046;-69
2022/12/19 09:40:57;;;;;;;77.57;48.95;;;5.40;99.90;;;;;;5020429;28;20053;-69
2022/12/19 09:43:45;;;;;;;96.45;66.35;;;5.50;99.90;;;;;;5037749;28;20045;-69
2022/12/19 09:46:31;;;;;;;72.28;45.65;;;5.50;99.90;;;;;;5037326;28;20431;-69
2022/12/19 09:49:00;;;;;;;78.57;48.30;;;5.60;99.90;;;;;;5037190;28;20073;-68
2022/12/19 09:51:42;;;;;;;88.30;50.72;;;5.70;99.90;;;;;;5037560;28;20041;-68
2022/12/19 09:54:37;;;;;;;83.70;47.85;;;5.70;99.90;;;;;;5037484;28;20042;-68
2022/12/19 09:57:32;;;;;;;103.55;54.08;;;5.70;99.90;;;;;;5020062;28;20472;-69
2022/12/19 10:00:05;;;;;;;83.18;54.47;;;6.20;99.90;;;;;;5029828;28;20046;-69
2022/12/19 10:02:54;;;;;;;80.38;51.67;;;5.80;99.90;;;;;;5033238;28;20194;-70
2022/12/19 10:05:39;;;;;;;83.93;54.65;;;6.50;99.90;;;;;;5000607;28;20049;-69
2022/12/19 10:08:31;;;;;;;84.18;53.28;;;5.80;99.90;;;;;;5017608;28;20042;-70
2022/12/19 10:11:03;;;;;;;77.10;50.40;;;5.90;99.90;;;;;;5013730;28;20064;-68
2022/12/19 10:13:40;;;;;;;78.10;50.08;;;5.90;99.90;;;;;;5017237;28;20184;-68
2022/12/19 10:16:28;;;;;;;86.03;61.63;;;6.00;99.90;;;;;;5017466;28;20379;-68
2022/12/19 10:18:59;;;;;;;73.60;47.08;;;6.00;99.90;;;;;;5029729;28;20076;-68
2022/12/19 10:21:45;;;;;;;77.45;50.80;;;6.00;99.90;;;;;;5036698;28;20045;-70
2022/12/19 10:24:32;;;;;;;79.38;49.90;;;6.10;99.90;;;;;;5029937;28;20099;-69
2022/12/19 10:27:00;;;;;;;83.57;49.10;;;6.10;99.90;;;;;;5036781;28;20060;-69
2022/12/19 10:29:35;;;;;;;70.20;45.08;;;6.10;99.90;;;;;;5036826;28;20049;-67
2022/12/19 10:32:21;;;;;;;63.83;42.40;;;6.20;99.90;;;;;;5036831;28;20128;-68
2022/12/19 10:34:49;;;;;;;74.38;43.55;;;6.20;99.90;;;;;;5016514;28;20053;-69
2022/12/19 10:37:28;;;;;;;73.72;45.47;;;6.20;99.90;;;;;;5033598;28;20037;-68
2022/12/19 10:40:33;;;;;;;67.07;43.90;;;6.30;99.90;;;;;;5036813;28;20064;-68
2022/12/19 10:43:10;;;;;;;65.85;42.13;;;6.30;99.90;;;;;;5036696;28;20350;-68
2022/12/19 10:45:47;;;;;;;71.55;44.03;;;6.40;99.90;;;;;;5036338;28;20424;-68
2022/12/19 10:48:18;;;;;;;60.10;39.78;;;6.40;99.90;;;;;;5035795;28;20071;-70
2022/12/19 10:50:44;;;;;;;71.63;44.42;;;6.40;99.90;;;;;;5036430;28;20457;-69
2022/12/19 10:53:11;;;;;;;68.88;42.28;;;6.50;99.90;;;;;;5032025;28;20057;-68
2022/12/19 10:55:44;;;;;;;69.18;48.42;;;6.70;99.90;;;;;;5036143;28;20041;-66
2022/12/19 10:58:23;;;;;;;69.32;49.70;;;6.50;99.90;;;;;;5036245;28;20065;-66
2022/12/19 11:01:11;;;;;;;61.63;44.95;;;6.60;99.90;;;;;;5036420;28;20053;-67
2022/12/19 11:03:38;;;;;;;65.05;51.60;;;6.60;99.90;;;;;;5029080;28;20093;-66
2022/12/19 11:06:05;;;;;;;59.28;45.03;;;6.60;99.90;;;;;;5035987;28;20049;-67
2022/12/19 11:08:33;;;;;;;67.28;54.40;;;6.70;99.90;;;;;;5016450;28;20045;-67
2022/12/19 11:11:05;;;;;;;60.03;46.22;;;6.70;99.90;;;;;;5034808;28;20088;-66
2022/12/19 11:13:33;;;;;;;46.38;36.88;;;7.00;99.90;;;;;;5036199;28;20055;-66
2022/12/19 11:16:02;;;;;;;66.03;50.33;;;6.80;99.90;;;;;;5018520;28;20114;-66
2022/12/19 11:18:41;;;;;;;64.95;48.72;;;6.70;99.90;;;;;;5035398;28;20446;-66
2022/12/19 11:21:23;;;;;;;94.45;37.97;;;6.70;99.90;;;;;;5035937;28;20041;-67
2022/12/19 11:23:58;;;;;;;53.97;43.85;;;6.70;99.90;;;;;;5035664;28;20057;-66
2022/12/19 11:26:40;;;;;;;49.83;37.72;;;6.80;99.90;;;;;;5034576;28;20168;-66
2022/12/19 11:29:26;;;;;;;52.13;38.75;;;6.80;99.90;;;;;;5036061;28;20446;-66
2022/12/19 11:32:00;;;;;;;50.45;37.92;;;6.90;99.90;;;;;;5035649;28;20079;-66
2022/12/19 11:34:29;;;;;;;52.60;37.30;;;6.80;99.90;;;;;;5035680;28;20041;-67
2022/12/19 11:37:18;;;;;;;56.33;43.33;;;6.80;99.90;;;;;;5035579;28;20049;-67
2022/12/19 11:39:50;;;;;;;65.40;44.13;;;6.90;99.90;;;;;;5037027;28;20106;-66
2022/12/19 11:42:34;;;;;;;58.05;46.22;;;6.90;99.90;;;;;;5017689;28;20685;-67
2022/12/19 11:45:15;;;;;;;54.60;45.80;;;6.90;99.90;;;;;;5035070;28;20350;-67
2022/12/19 11:47:56;;;;;;;48.78;40.63;;;7.00;99.90;;;;;;5035495;28;20050;-69
2022/12/19 11:50:36;;;;;;;40.20;31.52;;;7.00;99.90;;;;;;5035321;28;20052;-67
2022/12/19 11:53:22;;;;;;;56.30;48.75;;;7.10;99.90;;;;;;5034824;28;20041;-68
2022/12/19 11:55:54;;;;;;;61.95;45.58;;;7.10;99.90;;;;;;5018346;28;20076;-68
2022/12/19 11:58:23;;;;;;;48.90;38.63;;;7.10;99.90;;;;;;5035237;28;20448;-68
2022/12/19 12:00:57;;;;;;;53.28;42.97;;;7.50;99.90;;;;;;5034588;28;20079;-67
2022/12/19 12:03:58;;;;;;;61.67;52.70;;;7.20;99.90;;;;;;5035050;28;20057;-66
2022/12/19 12:06:30;;;;;;;43.17;36.75;;;7.10;99.90;;;;;;5033150;28;20069;-67
2022/12/19 12:09:15;;;;;;;47.63;35.20;;;7.20;99.90;;;;;;5030534;28;20046;-68
2022/12/19 12:12:33;;;;;;;41.50;30.45;;;7.30;99.90;;;;;;5034751;28;20045;-68
2022/12/19 12:15:13;;;;;;;38.67;30.50;;;7.30;99.90;;;;;;5017605;28;20064;-67
2022/12/19 12:17:47;;;;;;;39.63;30.90;;;7.30;99.90;;;;;;5017211;28;20049;-68
2022/12/19 12:21:01;;;;;;;35.88;28.15;;;7.30;99.90;;;;;;5034218;28;20052;-68
2022/12/19 12:23:47;;;;;;;38.63;30.63;;;7.30;99.90;;;;;;5021487;28;20053;-68
2022/12/19 12:26:33;;;;;;;34.80;27.08;;;7.30;99.90;;;;;;5034569;28;20056;-68
2022/12/19 12:29:21;;;;;;;35.75;29.92;;;7.30;99.90;;;;;;5034325;28;20049;-67
2022/12/19 12:32:34;;;;;;;46.38;34.00;;;7.30;99.90;;;;;;5034665;28;20124;-68
2022/12/19 12:35:21;;;;;;;40.78;31.80;;;7.30;99.90;;;;;;5029152;28;20377;-68
2022/12/19 12:38:09;;;;;;;46.20;34.00;;;7.30;99.90;;;;;;5034905;28;20373;-67
2022/12/19 12:41:06;;;;;;;45.72;36.63;;;7.60;99.90;;;;;;5038376;28;20472;-67
2022/12/19 12:43:50;;;;;;;52.50;39.67;;;7.40;99.90;;;;;;5038685;28;20476;-67
2022/12/19 12:46:23;;;;;;;51.92;45.22;;;7.40;99.90;;;;;;5038532;28;20417;-68
2022/12/19 12:49:01;;;;;;;51.10;41.33;;;7.40;99.90;;;;;;5038688;28;20055;-67
2022/12/19 12:51:28;;;;;;;49.03;39.05;;;7.40;99.90;;;;;;5037417;28;20300;-68
2022/12/19 12:54:03;;;;;;;45.17;36.63;;;7.40;99.90;;;;;;5038280;28;20037;-67
2022/12/19 12:56:30;;;;;;;41.58;31.27;;;7.50;99.90;;;;;;5037968;28;20041;-68
2022/12/19 12:58:55;;;;;;;41.83;31.63;;;7.40;99.90;;;;;;5038369;28;20057;-67
2022/12/19 13:01:28;;;;;;;37.53;28.00;;;7.40;99.90;;;;;;5038294;28;20351;-67